Time;durP1;ratioP1;P1;durP2;ratioP2;P2;SDS_P1;SDS_P2;PMS_P1;PMS_P2;Temp;Humidity;BMP_temperature;BMP_pressure;BME280_temperature;BME280_humidity;BME280_pressure;Samples;Min_cycle;Max_cycle;Signal;HPM_P1;HPM_P2
2022/03/24 00:00:39;;;;;;;5.03;4.73;;;25.00;43.30;;;;;;4974075;28;20495;-80
2022/03/24 00:03:06;;;;;;;5.17;4.77;;;25.00;43.20;;;;;;4974402;28;20516;-80
2022/03/24 00:05:34;;;;;;;5.80;5.40;;;25.00;43.40;;;;;;4974106;28;20453;-80
2022/03/24 00:08:00;;;;;;;5.50;5.00;;;24.90;43.30;;;;;;4977351;28;20452;-80
2022/03/24 00:10:27;;;;;;;6.40;5.97;;;25.00;43.50;;;;;;4977843;28;20503;-80
2022/03/24 00:12:55;;;;;;;5.13;4.33;;;25.00;43.40;;;;;;4977830;28;20500;-81
2022/03/24 00:15:22;;;;;;;4.87;4.47;;;24.90;43.30;;;;;;4977684;28;20484;-80
2022/03/24 00:17:50;;;;;;;4.57;4.27;;;24.90;43.30;;;;;;4977684;28;20456;-81
2022/03/24 00:20:17;;;;;;;4.03;3.77;;;25.00;43.50;;;;;;4977662;28;20823;-81
2022/03/24 00:22:44;;;;;;;5.07;4.67;;;24.90;43.40;;;;;;4978063;28;20445;-81
2022/03/24 00:25:11;;;;;;;4.97;4.67;;;25.00;43.40;;;;;;4977543;28;20451;-81
2022/03/24 00:27:39;;;;;;;5.13;4.73;;;25.00;43.40;;;;;;4977592;28;20450;-81
2022/03/24 00:30:08;;;;;;;4.70;4.40;;;24.90;43.30;;;;;;4977346;28;20477;-92
2022/03/24 00:32:35;;;;;;;4.93;4.57;;;24.90;43.30;;;;;;4977271;28;20879;-82
2022/03/24 00:35:03;;;;;;;4.80;4.40;;;25.00;43.30;;;;;;4977096;28;21020;-81
2022/03/24 00:37:31;;;;;;;4.43;4.03;;;24.90;43.30;;;;;;4977242;28;20807;-79
2022/03/24 00:40:00;;;;;;;5.00;4.60;;;24.90;43.20;;;;;;4977258;28;20449;-80
2022/03/24 00:42:27;;;;;;;6.10;5.23;;;25.10;43.30;;;;;;4977277;28;20463;-80
2022/03/24 00:44:54;;;;;;;4.20;3.90;;;24.90;43.10;;;;;;4976753;28;20925;-80
2022/03/24 00:47:21;;;;;;;5.60;5.20;;;24.90;43.20;;;;;;4977171;28;20456;-79
2022/03/24 00:49:48;;;;;;;5.83;5.33;;;24.90;43.10;;;;;;4976689;28;20453;-79
2022/03/24 00:52:16;;;;;;;5.90;5.40;;;24.90;43.20;;;;;;4977059;28;20453;-80
2022/03/24 00:54:43;;;;;;;4.93;4.53;;;24.90;43.20;;;;;;4976722;28;20451;-80
2022/03/24 00:57:10;;;;;;;4.80;4.50;;;24.90;43.30;;;;;;4976860;28;20456;-80
2022/03/24 00:59:37;;;;;;;4.83;4.50;;;24.90;43.10;;;;;;4977448;28;20540;-90
2022/03/24 01:02:09;;;;;;;5.50;5.10;;;24.90;43.20;;;;;;4977028;28;20450;-80
2022/03/24 01:04:36;;;;;;;4.80;4.40;;;24.90;43.20;;;;;;4976964;28;20445;-80
2022/03/24 01:07:03;;;;;;;5.63;5.27;;;24.80;43.20;;;;;;4976458;28;20913;-79
2022/03/24 01:09:31;;;;;;;4.53;4.23;;;24.80;43.10;;;;;;4976536;28;20449;-79
2022/03/24 01:11:58;;;;;;;5.33;4.93;;;24.80;43.20;;;;;;4976562;28;20489;-80
2022/03/24 01:14:25;;;;;;;5.40;5.00;;;24.80;43.20;;;;;;4976404;28;20452;-79
2022/03/24 01:16:52;;;;;;;4.63;4.33;;;24.90;43.30;;;;;;4976170;28;20454;-79
2022/03/24 01:19:19;;;;;;;4.43;4.07;;;24.80;43.30;;;;;;4976506;28;20469;-79
2022/03/24 01:21:45;;;;;;;4.70;4.40;;;24.80;43.20;;;;;;4976514;28;20452;-79
2022/03/24 01:24:12;;;;;;;5.23;4.17;;;24.80;43.20;;;;;;4976397;28;20456;-79
2022/03/24 01:26:40;;;;;;;5.70;5.30;;;25.00;43.20;;;;;;4976134;28;20445;-79
2022/03/24 01:29:08;;;;;;;4.97;4.57;;;24.80;43.10;;;;;;4976400;28;20441;-83
2022/03/24 01:31:35;;;;;;;5.33;4.93;;;24.80;43.20;;;;;;4975878;28;20485;-79
2022/03/24 01:34:01;;;;;;;4.87;4.47;;;24.80;43.20;;;;;;4975906;28;20481;-79
2022/03/24 01:36:28;;;;;;;4.87;4.50;;;24.80;43.20;;;;;;4976741;28;20450;-79
2022/03/24 01:38:55;;;;;;;5.80;5.40;;;24.80;43.10;;;;;;4976302;28;20452;-79
2022/03/24 01:44:46;;;;;;;4.33;4.03;;;24.80;43.10;;;;;;4975921;28;20436;-79
2022/03/24 01:47:13;;;;;;;5.00;4.60;;;24.70;43.20;;;;;;4975763;28;20496;-79
2022/03/24 01:49:42;;;;;;;5.70;5.30;;;24.70;43.20;;;;;;4975925;28;20453;-79
2022/03/24 01:52:10;;;;;;;5.27;4.93;;;24.70;43.20;;;;;;4975651;28;20565;-79
2022/03/24 01:54:40;;;;;;;4.23;3.97;;;24.90;43.30;;;;;;4975894;28;20475;-79
2022/03/24 01:57:10;;;;;;;4.23;3.93;;;24.80;43.30;;;;;;4975813;28;20952;-79
2022/03/24 01:59:37;;;;;;;4.47;4.07;;;24.80;43.20;;;;;;4975804;28;20449;-79
2022/03/24 02:02:06;;;;;;;4.43;4.13;;;24.80;43.30;;;;;;4975471;28;20453;-79
2022/03/24 02:04:35;;;;;;;4.23;3.93;;;24.70;43.20;;;;;;4975376;28;20526;-79
2022/03/24 02:07:02;;;;;;;4.33;4.03;;;24.70;43.20;;;;;;4975654;28;20456;-79
2022/03/24 02:09:28;;;;;;;4.90;4.50;;;24.70;43.20;;;;;;4975623;28;20449;-79
2022/03/24 02:11:55;;;;;;;4.73;4.40;;;24.70;43.70;;;;;;4975218;28;21003;-80
2022/03/24 02:14:22;;;;;;;4.07;3.87;;;24.80;43.30;;;;;;4975527;28;20456;-79
2022/03/24 02:16:50;;;;;;;4.50;4.20;;;24.70;43.20;;;;;;4975186;28;20955;-79
2022/03/24 02:19:21;;;;;;;4.90;4.60;;;24.70;43.30;;;;;;4975452;28;20454;-90
2022/03/24 02:21:49;;;;;;;4.43;4.13;;;24.70;43.20;;;;;;4975504;28;20441;-79
2022/03/24 02:24:19;;;;;;;4.80;4.40;;;24.80;43.30;;;;;;4975364;28;20454;-79
2022/03/24 02:26:47;;;;;;;5.00;4.60;;;24.70;43.30;;;;;;4975334;28;20445;-79
2022/03/24 02:29:15;;;;;;;4.10;3.80;;;24.70;43.30;;;;;;4974823;28;20442;-79
2022/03/24 02:31:43;;;;;;;4.70;4.40;;;24.70;43.30;;;;;;4975303;28;20489;-79
2022/03/24 02:36:57;;;;;;;4.17;3.87;;;24.80;43.30;;;;;;4975283;28;20409;-79
2022/03/24 02:39:25;;;;;;;4.60;4.30;;;24.60;43.10;;;;;;4975265;28;20453;-79
2022/03/24 02:41:54;;;;;;;4.80;4.43;;;24.70;43.30;;;;;;4975077;28;20619;-79
2022/03/24 02:44:22;;;;;;;4.10;3.87;;;24.70;43.30;;;;;;4975083;28;20445;-79
2022/03/24 02:46:50;;;;;;;4.50;4.20;;;24.70;43.20;;;;;;4975051;28;20444;-91
2022/03/24 02:49:18;;;;;;;4.47;4.17;;;24.80;43.40;;;;;;4974769;28;20448;-79
2022/03/24 02:51:45;;;;;;;3.90;3.70;;;24.70;43.30;;;;;;4974650;28;20485;-79
2022/03/24 02:54:12;;;;;;;4.70;4.30;;;24.60;43.30;;;;;;4975129;28;20463;-79
2022/03/24 02:56:42;;;;;;;4.90;4.60;;;24.60;43.20;;;;;;4974688;28;20441;-79
2022/03/24 02:59:10;;;;;;;4.97;4.57;;;24.60;43.20;;;;;;4974638;28;20991;-79
2022/03/24 03:01:38;;;;;;;4.43;4.13;;;24.60;43.20;;;;;;4974911;28;20453;-79
2022/03/24 03:04:05;;;;;;;4.17;3.87;;;24.60;43.10;;;;;;4975113;28;20541;-79
2022/03/24 03:06:32;;;;;;;4.33;4.03;;;24.60;43.20;;;;;;4974870;28;20457;-79
2022/03/24 03:09:01;;;;;;;3.83;3.63;;;24.60;43.20;;;;;;4974469;28;20452;-80
2022/03/24 03:11:30;;;;;;;3.93;3.73;;;24.60;43.20;;;;;;4974725;28;20493;-79
2022/03/24 03:13:59;;;;;;;4.20;3.90;;;24.60;43.20;;;;;;4974484;28;20481;-79
2022/03/24 03:16:27;;;;;;;4.30;4.00;;;24.60;43.20;;;;;;4974784;28;20445;-90
2022/03/24 03:18:55;;;;;;;3.83;3.53;;;24.60;43.80;;;;;;4974683;28;20468;-80
2022/03/24 03:21:22;;;;;;;4.40;4.10;;;24.60;43.10;;;;;;4974637;28;20512;-79
2022/03/24 03:23:49;;;;;;;4.90;4.60;;;24.60;43.20;;;;;;4974740;28;20449;-84
2022/03/24 03:26:17;;;;;;;4.33;4.03;;;24.60;43.20;;;;;;4974337;28;20963;-79
2022/03/24 03:28:44;;;;;;;3.80;3.57;;;24.60;43.20;;;;;;4975163;28;20921;-79
2022/03/24 03:31:13;;;;;;;4.40;4.10;;;24.60;43.20;;;;;;4975196;28;20481;-79
2022/03/24 03:33:40;;;;;;;4.73;4.43;;;24.60;43.20;;;;;;4974402;28;20477;-79
2022/03/24 03:36:07;;;;;;;4.17;3.77;;;24.60;43.20;;;;;;4974559;28;20856;-79
2022/03/24 03:38:34;;;;;;;4.30;4.00;;;24.60;43.20;;;;;;4974321;28;20940;-79
2022/03/24 03:41:02;;;;;;;4.40;4.10;;;24.60;43.20;;;;;;4976399;28;20445;-80
2022/03/24 03:43:29;;;;;;;4.17;3.87;;;24.60;43.20;;;;;;4978354;28;20495;-79
2022/03/24 03:45:55;;;;;;;3.90;3.60;;;24.60;43.10;;;;;;4978241;28;20814;-79
2022/03/24 03:48:24;;;;;;;4.57;4.23;;;24.60;43.10;;;;;;4977906;28;20440;-80
2022/03/24 03:50:52;;;;;;;4.60;4.27;;;24.80;43.30;;;;;;4978608;28;20499;-80
2022/03/24 03:53:18;;;;;;;3.80;3.50;;;24.60;43.10;;;;;;4978162;28;20450;-80
2022/03/24 03:55:45;;;;;;;4.17;3.87;;;24.60;43.20;;;;;;4977455;28;20472;-80
2022/03/24 03:58:12;;;;;;;4.30;4.00;;;24.60;43.10;;;;;;4978043;28;20445;-80
2022/03/24 04:00:55;;;;;;;4.13;3.83;;;24.50;43.00;;;;;;4977942;28;20822;-80
2022/03/24 04:03:23;;;;;;;4.00;3.77;;;24.60;43.10;;;;;;4978034;28;20437;-80
2022/03/24 04:05:50;;;;;;;4.20;3.90;;;24.60;43.10;;;;;;4977611;28;20966;-80
2022/03/24 04:08:17;;;;;;;3.73;3.50;;;24.60;43.10;;;;;;4977848;28;20447;-80
2022/03/24 04:10:44;;;;;;;4.77;4.47;;;24.60;43.10;;;;;;4977733;28;20445;-80
2022/03/24 04:13:11;;;;;;;4.67;4.33;;;24.50;43.00;;;;;;4977751;28;20445;-80
2022/03/24 04:15:38;;;;;;;4.83;4.53;;;24.60;43.10;;;;;;4977375;28;20959;-90
2022/03/24 04:18:05;;;;;;;4.13;3.83;;;24.50;43.00;;;;;;4977426;28;20449;-80
2022/03/24 04:20:34;;;;;;;3.63;3.43;;;24.60;43.10;;;;;;4977716;28;20737;-79
2022/03/24 04:23:05;;;;;;;4.37;4.00;;;24.50;43.00;;;;;;4977613;28;20449;-80
2022/03/24 04:25:33;;;;;;;4.17;3.87;;;24.60;43.10;;;;;;4977725;28;20781;-80
2022/03/24 04:28:00;;;;;;;4.20;3.90;;;24.50;43.00;;;;;;4977413;28;20823;-80
2022/03/24 04:30:28;;;;;;;4.30;3.90;;;24.50;43.10;;;;;;4977432;28;20441;-80
2022/03/24 04:32:55;;;;;;;4.27;3.97;;;24.50;43.00;;;;;;4977085;28;20493;-80
2022/03/24 04:35:22;;;;;;;3.83;3.53;;;24.50;43.00;;;;;;4978433;28;20437;-80
2022/03/24 04:37:51;;;;;;;4.40;4.10;;;24.60;43.10;;;;;;4977850;28;20795;-80
2022/03/24 04:40:20;;;;;;;3.93;3.67;;;24.50;43.00;;;;;;4977838;28;20445;-80
2022/03/24 04:42:49;;;;;;;4.40;4.10;;;24.50;43.00;;;;;;4977345;28;20816;-80
2022/03/24 04:45:17;;;;;;;3.20;3.00;;;24.60;43.00;;;;;;4977173;28;20574;-80
2022/03/24 04:47:44;;;;;;;4.23;3.93;;;24.50;43.00;;;;;;4977104;28;20481;-79
2022/03/24 04:50:11;;;;;;;4.13;3.83;;;24.60;43.00;;;;;;4976821;28;20445;-79
2022/03/24 04:52:38;;;;;;;4.23;3.93;;;24.50;43.00;;;;;;4975887;28;20496;-80
2022/03/24 04:55:07;;;;;;;4.10;3.90;;;24.50;43.00;;;;;;4977036;28;20445;-80
2022/03/24 04:57:34;;;;;;;4.10;3.80;;;24.50;43.00;;;;;;4976966;28;20441;-80
2022/03/24 05:00:01;;;;;;;4.10;3.80;;;24.50;43.00;;;;;;4976956;28;20468;-80
2022/03/24 05:02:28;;;;;;;4.50;4.20;;;24.70;43.20;;;;;;4976866;28;20450;-80
2022/03/24 05:04:55;;;;;;;4.30;3.90;;;24.50;43.00;;;;;;4976827;28;20445;-80
2022/03/24 05:07:21;;;;;;;4.00;3.70;;;24.50;43.00;;;;;;4976602;28;20441;-80
2022/03/24 05:09:50;;;;;;;3.97;3.67;;;24.50;43.00;;;;;;4976791;28;20449;-79
2022/03/24 05:12:18;;;;;;;3.27;3.07;;;24.60;43.00;;;;;;4976317;28;20477;-80
2022/03/24 05:14:45;;;;;;;4.27;3.97;;;24.50;42.90;;;;;;4976760;28;20453;-80
2022/03/24 05:17:13;;;;;;;4.03;3.73;;;24.50;43.00;;;;;;4976344;28;20489;-80
2022/03/24 05:19:40;;;;;;;3.90;3.70;;;24.50;43.00;;;;;;4976206;28;20512;-80
2022/03/24 05:22:07;;;;;;;3.90;3.60;;;24.50;43.00;;;;;;4976080;28;20925;-80
2022/03/24 05:24:34;;;;;;;5.00;4.50;;;24.50;43.00;;;;;;4976505;28;20449;-80
2022/03/24 05:27:01;;;;;;;4.67;4.27;;;24.50;42.80;;;;;;4976443;28;20441;-92
2022/03/24 05:29:29;;;;;;;4.50;4.10;;;24.40;42.90;;;;;;4976383;28;20806;-80
2022/03/24 05:31:56;;;;;;;4.67;4.37;;;24.40;43.00;;;;;;4976239;28;20481;-82
2022/03/24 05:34:22;;;;;;;4.60;4.30;;;24.40;43.00;;;;;;4976039;28;20980;-85
2022/03/24 05:36:50;;;;;;;4.80;4.40;;;24.50;43.00;;;;;;4976557;28;20437;-89
2022/03/24 05:39:20;;;;;;;4.10;3.80;;;24.40;42.90;;;;;;4975960;28;20933;-89
2022/03/24 05:41:47;;;;;;;4.20;3.80;;;24.50;43.00;;;;;;4976073;28;20492;-89
2022/03/24 05:44:13;;;;;;;4.40;4.10;;;24.50;43.00;;;;;;4976136;28;20445;-89
2022/03/24 05:46:44;;;;;;;5.30;4.80;;;24.50;43.00;;;;;;4975716;28;20452;-89
2022/03/24 05:49:14;;;;;;;4.20;3.90;;;24.50;43.00;;;;;;4976387;28;20441;-90
2022/03/24 05:51:42;;;;;;;4.23;3.83;;;24.40;42.90;;;;;;4975933;28;20485;-81
2022/03/24 05:54:08;;;;;;;4.23;3.93;;;24.40;42.90;;;;;;4975926;28;20544;-81
2022/03/24 05:56:35;;;;;;;4.10;3.80;;;24.50;43.00;;;;;;4975910;28;20464;-88
2022/03/24 05:59:02;;;;;;;4.50;4.10;;;24.50;43.00;;;;;;4976049;28;20445;-81
2022/03/24 06:01:29;;;;;;;4.27;3.97;;;24.40;42.90;;;;;;4975536;28;20453;-89
2022/03/24 06:04:00;;;;;;;4.97;4.57;;;24.40;43.00;;;;;;4974799;28;20456;-81
2022/03/24 06:06:27;;;;;;;4.10;3.80;;;24.60;43.10;;;;;;4975804;28;20434;-81
2022/03/24 06:08:57;;;;;;;4.90;4.57;;;24.40;43.00;;;;;;4975653;28;20449;-81
2022/03/24 06:11:25;;;;;;;4.57;4.27;;;24.40;43.00;;;;;;4976604;28;20814;-81
2022/03/24 06:13:53;;;;;;;4.80;4.40;;;24.40;43.00;;;;;;4975318;28;20511;-81
2022/03/24 06:16:21;;;;;;;4.03;3.73;;;24.40;43.00;;;;;;4975493;28;20450;-89
2022/03/24 06:18:48;;;;;;;4.63;4.23;;;24.40;43.00;;;;;;4975535;28;20475;-89
2022/03/24 06:21:17;;;;;;;3.80;3.50;;;24.40;43.00;;;;;;4975488;28;20441;-84
2022/03/24 06:23:43;;;;;;;3.97;3.63;;;24.40;43.00;;;;;;4975435;28;20453;-88
2022/03/24 06:26:10;;;;;;;5.43;4.20;;;24.40;43.00;;;;;;4975097;28;20438;-89
2022/03/24 06:28:37;;;;;;;4.53;4.13;;;24.40;43.00;;;;;;4975366;28;20437;-88
2022/03/24 06:31:05;;;;;;;4.80;4.40;;;24.40;43.00;;;;;;4975477;28;20449;-83
2022/03/24 06:33:32;;;;;;;4.67;4.37;;;24.40;43.00;;;;;;4974929;28;20503;-81
2022/03/24 06:35:58;;;;;;;4.80;4.50;;;24.40;43.10;;;;;;4975316;28;20449;-92
2022/03/24 06:38:27;;;;;;;4.63;4.33;;;24.40;43.10;;;;;;4975419;28;20445;-81
2022/03/24 06:40:53;;;;;;;4.80;4.40;;;24.40;43.10;;;;;;4975208;28;20481;-82
2022/03/24 06:43:20;;;;;;;5.20;3.80;;;24.40;43.10;;;;;;4975298;28;20822;-81
2022/03/24 06:45:47;;;;;;;4.57;4.27;;;24.40;43.10;;;;;;4975176;28;20503;-92
2022/03/24 06:48:15;;;;;;;4.17;3.87;;;24.40;43.10;;;;;;4975254;28;20463;-81
2022/03/24 06:50:41;;;;;;;4.30;4.00;;;24.40;43.10;;;;;;4975084;28;20540;-92
2022/03/24 06:53:08;;;;;;;4.73;4.30;;;24.40;43.10;;;;;;4975032;28;20841;-81
2022/03/24 06:55:37;;;;;;;5.00;4.20;;;24.40;43.10;;;;;;4974866;28;20494;-92
2022/03/24 06:58:03;;;;;;;3.83;3.57;;;24.40;43.10;;;;;;4975068;28;20500;-81
2022/03/24 07:00:31;;;;;;;4.20;3.90;;;24.40;43.10;;;;;;4975103;28;20460;-81
2022/03/24 07:02:58;;;;;;;4.57;4.27;;;24.40;43.70;;;;;;4974990;28;20453;-81
2022/03/24 07:05:25;;;;;;;4.63;4.03;;;24.40;43.20;;;;;;4974963;28;20500;-81
2022/03/24 07:07:52;;;;;;;4.10;3.80;;;24.40;43.20;;;;;;4974916;28;20473;-92
2022/03/24 07:10:20;;;;;;;4.47;4.13;;;24.40;43.20;;;;;;4975047;28;20974;-92
2022/03/24 07:12:49;;;;;;;4.50;4.20;;;24.40;43.20;;;;;;4974654;28;20535;-92
2022/03/24 07:18:38;;;;;;;5.13;4.53;;;24.30;43.30;;;;;;4978665;28;20944;-81
2022/03/24 07:21:07;;;;;;;4.30;4.00;;;24.20;43.60;;;;;;4978884;28;20493;-93
2022/03/24 07:23:34;;;;;;;9.47;4.63;;;24.20;43.50;;;;;;4978746;28;20449;-81
2022/03/24 07:26:01;;;;;;;4.30;3.90;;;24.20;43.50;;;;;;4978693;28;20452;-81
2022/03/24 07:28:29;;;;;;;4.93;4.60;;;24.30;43.70;;;;;;4978531;28;20440;-80
2022/03/24 07:30:56;;;;;;;5.13;4.73;;;24.30;43.80;;;;;;4978281;28;20445;-80
2022/03/24 07:33:22;;;;;;;4.83;4.43;;;24.30;44.00;;;;;;4978457;28;20507;-84
2022/03/24 07:35:49;;;;;;;4.47;4.17;;;24.30;43.90;;;;;;4978275;28;20441;-82
2022/03/24 07:38:17;;;;;;;4.60;4.20;;;24.30;43.90;;;;;;4978427;28;20448;-90
2022/03/24 07:40:44;;;;;;;4.60;4.30;;;24.30;43.90;;;;;;4978542;28;20468;-81
2022/03/24 07:43:11;;;;;;;5.20;4.80;;;24.40;43.90;;;;;;4978418;28;20448;-80
2022/03/24 07:45:39;;;;;;;5.87;5.37;;;24.40;43.80;;;;;;4978304;28;20473;-89
2022/03/24 07:48:14;;;;;;;5.53;5.03;;;24.40;43.70;;;;;;4978617;28;20831;-81
2022/03/24 07:50:42;;;;;;;5.27;4.77;;;24.50;43.70;;;;;;4978261;28;20841;-81
2022/03/24 07:53:39;;;;;;;5.00;4.60;;;24.50;43.70;;;;;;4978238;28;20499;-91
2022/03/24 07:56:06;;;;;;;5.43;4.90;;;24.50;43.70;;;;;;4961954;28;20446;-81
2022/03/24 07:58:32;;;;;;;9.03;4.77;;;24.50;43.90;;;;;;4978605;28;20800;-81
2022/03/24 08:01:01;;;;;;;4.87;4.47;;;24.50;44.50;;;;;;4977901;28;20505;-92
2022/03/24 08:03:28;;;;;;;4.70;4.27;;;24.50;43.80;;;;;;4977896;28;20485;-91
2022/03/24 08:05:55;;;;;;;4.97;4.67;;;24.60;43.80;;;;;;4978066;28;20460;-80
2022/03/24 08:08:22;;;;;;;5.20;4.70;;;24.60;43.80;;;;;;4977983;28;20441;-80
2022/03/24 08:10:50;;;;;;;5.03;4.57;;;24.70;44.00;;;;;;4978081;28;20472;-80
2022/03/24 08:13:19;;;;;;;5.37;4.87;;;24.70;44.00;;;;;;4977715;28;20488;-81
2022/03/24 08:15:46;;;;;;;7.60;6.90;;;24.70;43.90;;;;;;4977814;28;20441;-82
2022/03/24 08:18:15;;;;;;;5.93;5.43;;;24.70;43.90;;;;;;4977809;28;20442;-81
2022/03/24 08:20:43;;;;;;;5.23;4.73;;;24.60;43.80;;;;;;4977890;28;20449;-92
2022/03/24 08:23:11;;;;;;;5.53;5.10;;;24.70;43.80;;;;;;4978092;28;20452;-80
2022/03/24 08:25:40;;;;;;;6.43;5.93;;;24.70;43.80;;;;;;4977221;28;20450;-86
2022/03/24 08:28:07;;;;;;;7.13;6.53;;;24.70;43.80;;;;;;4976345;28;20807;-81
2022/03/24 08:30:33;;;;;;;8.10;7.50;;;24.70;43.90;;;;;;4977367;28;20449;-91
2022/03/24 08:33:00;;;;;;;10.50;7.30;;;24.70;43.90;;;;;;4977751;28;20497;-85
2022/03/24 08:35:28;;;;;;;11.83;7.37;;;24.70;44.10;;;;;;4977323;28;20485;-81
2022/03/24 08:37:55;;;;;;;7.53;6.67;;;24.70;44.10;;;;;;4977237;28;20461;-80
2022/03/24 08:40:22;;;;;;;8.40;7.23;;;24.70;44.00;;;;;;4977580;28;20449;-80
2022/03/24 08:42:49;;;;;;;7.93;7.13;;;24.70;44.00;;;;;;4977849;28;20459;-78
2022/03/24 08:45:16;;;;;;;8.17;7.37;;;24.70;43.90;;;;;;4977719;28;20456;-79
2022/03/24 08:47:43;;;;;;;8.40;7.70;;;24.70;44.00;;;;;;4977948;28;20463;-79
2022/03/24 08:53:33;;;;;;;7.17;6.57;;;24.70;44.00;;;;;;4976920;28;20468;-79
2022/03/24 08:56:00;;;;;;;7.60;6.90;;;24.70;44.10;;;;;;4977040;28;20472;-85
2022/03/24 08:58:27;;;;;;;8.00;7.30;;;24.70;44.10;;;;;;4976582;28;20456;-78
2022/03/24 09:00:53;;;;;;;8.47;7.60;;;24.60;44.00;;;;;;4976770;28;20454;-85
2022/03/24 09:03:20;;;;;;;7.80;7.10;;;24.70;44.20;;;;;;4976929;28;20449;-78
2022/03/24 09:05:47;;;;;;;9.03;8.13;;;24.70;44.10;;;;;;4976491;28;20452;-81
2022/03/24 09:11:36;;;;;;;7.80;7.10;;;24.70;44.00;;;;;;4976597;28;20425;-81
2022/03/24 09:14:03;;;;;;;9.27;8.37;;;24.70;44.00;;;;;;4976416;28;20688;-81
2022/03/24 09:16:30;;;;;;;8.30;7.50;;;24.70;44.00;;;;;;4976541;28;20449;-81
2022/03/24 09:18:57;;;;;;;7.83;7.13;;;24.70;44.10;;;;;;4976301;28;20932;-81
2022/03/24 09:21:24;;;;;;;7.77;6.97;;;24.70;44.10;;;;;;4976914;28;20512;-80
2022/03/24 09:23:50;;;;;;;6.30;5.80;;;24.70;44.20;;;;;;4976395;28;20446;-81
2022/03/24 09:26:19;;;;;;;6.03;4.90;;;24.80;44.10;;;;;;4976426;28;20454;-79
2022/03/24 09:28:51;;;;;;;7.50;6.80;;;24.80;44.10;;;;;;4977502;28;20453;-84
2022/03/24 09:31:17;;;;;;;9.10;7.50;;;24.80;44.20;;;;;;4976459;28;20972;-83
2022/03/24 09:33:44;;;;;;;14.20;8.83;;;25.00;44.30;;;;;;4975695;28;20496;-83
2022/03/24 09:36:11;;;;;;;21.30;15.53;;;24.80;44.00;;;;;;4975903;28;20456;-83
2022/03/24 09:38:39;;;;;;;13.90;11.53;;;24.80;43.70;;;;;;4975954;28;20445;-83
2022/03/24 09:41:06;;;;;;;16.27;13.10;;;24.80;43.60;;;;;;4976183;28;20877;-85
2022/03/24 09:43:36;;;;;;;13.80;9.90;;;24.80;43.50;;;;;;4976290;28;20456;-85
2022/03/24 09:46:05;;;;;;;11.27;9.93;;;24.80;44.20;;;;;;4975778;28;20453;-82
2022/03/24 09:48:31;;;;;;;13.23;10.53;;;24.80;44.30;;;;;;4976232;28;20450;-81
2022/03/24 09:50:58;;;;;;;14.33;10.27;;;24.80;44.30;;;;;;4975941;28;20456;-81
2022/03/24 09:53:25;;;;;;;12.17;10.97;;;24.80;44.50;;;;;;4975965;28;20842;-82
2022/03/24 09:55:52;;;;;;;13.90;11.37;;;24.70;44.50;;;;;;4975731;28;20457;-82
2022/03/24 09:58:23;;;;;;;12.03;10.90;;;24.70;44.60;;;;;;4975896;28;20445;-82
2022/03/24 10:00:50;;;;;;;14.33;12.40;;;24.80;44.50;;;;;;4975766;28;20433;-82
2022/03/24 10:03:22;;;;;;;17.83;11.67;;;24.70;44.30;;;;;;4975709;28;20452;-83
2022/03/24 10:05:57;;;;;;;12.93;11.43;;;24.70;44.20;;;;;;4975409;28;20433;-82
2022/03/24 10:08:24;;;;;;;14.40;11.63;;;24.60;44.10;;;;;;4975403;28;20951;-82
2022/03/24 10:10:56;;;;;;;14.40;12.90;;;24.70;44.30;;;;;;4975271;28;20936;-84
2022/03/24 10:13:40;;;;;;;14.40;13.03;;;24.70;44.20;;;;;;4975225;28;20477;-81
2022/03/24 10:16:07;;;;;;;17.33;12.70;;;24.70;44.00;;;;;;4975742;28;20437;-84
2022/03/24 10:18:35;;;;;;;18.00;13.67;;;24.60;44.00;;;;;;4975216;28;20960;-82
2022/03/24 10:21:03;;;;;;;20.03;13.70;;;24.60;44.00;;;;;;4975428;28;20446;-82
2022/03/24 10:23:33;;;;;;;13.97;12.67;;;24.60;43.90;;;;;;4975075;28;20921;-82
2022/03/24 10:26:03;;;;;;;13.70;12.13;;;24.60;43.90;;;;;;4975560;28;20820;-83
2022/03/24 10:28:30;;;;;;;25.40;19.23;;;24.60;43.80;;;;;;4975646;28;20438;-82
2022/03/24 10:30:59;;;;;;;20.67;18.47;;;24.60;43.50;;;;;;4974793;28;20472;-81
2022/03/24 10:33:27;;;;;;;21.70;15.33;;;24.40;42.80;;;;;;4975148;28;20489;-82
2022/03/24 10:36:12;;;;;;;15.70;13.93;;;24.50;43.20;;;;;;4975368;28;20504;-84
2022/03/24 10:38:41;;;;;;;13.50;12.30;;;24.50;43.30;;;;;;4975251;28;20504;-82
2022/03/24 10:41:17;;;;;;;15.00;11.60;;;24.50;43.50;;;;;;4975290;28;20461;-82
2022/03/24 10:43:43;;;;;;;15.40;12.87;;;24.50;43.40;;;;;;4975197;28;20460;-83
2022/03/24 10:46:15;;;;;;;14.50;12.80;;;24.50;43.50;;;;;;4975282;28;20449;-83
2022/03/24 10:48:42;;;;;;;14.30;12.80;;;24.50;43.40;;;;;;4975314;28;20484;-83
2022/03/24 10:51:09;;;;;;;14.90;12.77;;;24.50;43.30;;;;;;4974631;28;20454;-83
2022/03/24 10:53:44;;;;;;;15.43;12.13;;;24.50;43.30;;;;;;4975250;28;20477;-85
2022/03/24 10:56:19;;;;;;;13.23;11.93;;;24.50;43.30;;;;;;4975280;28;20441;-84
2022/03/24 10:58:50;;;;;;;13.20;11.80;;;24.60;43.30;;;;;;4975117;28;20930;-83
2022/03/24 11:01:20;;;;;;;14.30;13.00;;;24.50;43.10;;;;;;4978339;28;20798;-81
2022/03/24 11:03:48;;;;;;;12.60;11.60;;;24.60;43.00;;;;;;4975976;28;20453;-83
2022/03/24 11:06:17;;;;;;;13.90;11.20;;;24.60;42.90;;;;;;4977789;28;20460;-83
2022/03/24 11:08:53;;;;;;;12.67;11.47;;;24.60;42.70;;;;;;4975278;28;20932;-85
2022/03/24 11:11:20;;;;;;;12.47;11.27;;;24.60;42.70;;;;;;4975167;28;20951;-81
2022/03/24 11:13:51;;;;;;;12.30;11.13;;;24.50;42.60;;;;;;4975093;28;20492;-81
2022/03/24 11:16:20;;;;;;;11.23;10.23;;;24.60;42.70;;;;;;4974745;28;20437;-82
2022/03/24 11:18:49;;;;;;;11.77;10.77;;;24.60;42.50;;;;;;4974658;28;20445;-81
2022/03/24 11:21:23;;;;;;;12.10;10.73;;;24.60;42.40;;;;;;4974577;28;20452;-81
2022/03/24 11:23:53;;;;;;;11.23;10.23;;;24.80;42.40;;;;;;4974475;28;20457;-81
2022/03/24 11:26:21;;;;;;;11.23;10.23;;;24.60;42.30;;;;;;4974533;28;20516;-81
2022/03/24 11:28:50;;;;;;;11.30;10.30;;;24.60;42.30;;;;;;4974536;28;20802;-81
2022/03/24 11:31:18;;;;;;;11.10;10.07;;;24.60;42.20;;;;;;4974537;28;20448;-81
2022/03/24 11:33:47;;;;;;;11.00;9.93;;;24.60;42.20;;;;;;4974275;28;20500;-82
2022/03/24 11:36:15;;;;;;;11.70;10.60;;;24.70;42.50;;;;;;4974563;28;20806;-82
2022/03/24 11:38:43;;;;;;;10.73;9.60;;;24.60;42.30;;;;;;4974565;28;20785;-81
2022/03/24 11:41:17;;;;;;;13.57;11.23;;;24.60;42.30;;;;;;4974645;28;20445;-81
2022/03/24 11:43:49;;;;;;;10.63;9.63;;;24.80;42.20;;;;;;4974591;28;20426;-81
2022/03/24 11:46:27;;;;;;;12.30;11.10;;;24.60;42.20;;;;;;4974784;28;20477;-81
2022/03/24 11:49:13;;;;;;;11.47;10.37;;;24.60;42.20;;;;;;4974984;28;20432;-81
2022/03/24 11:51:40;;;;;;;11.07;9.70;;;24.60;42.00;;;;;;4974450;28;20429;-81
2022/03/24 11:54:09;;;;;;;13.30;9.80;;;24.50;42.20;;;;;;4974077;28;21030;-81
2022/03/24 11:56:38;;;;;;;11.03;9.87;;;24.60;42.00;;;;;;4974070;28;20457;-81
2022/03/24 11:59:21;;;;;;;10.70;9.80;;;24.70;42.10;;;;;;4974293;28;20445;-81
2022/03/24 12:01:48;;;;;;;9.97;9.00;;;24.60;42.00;;;;;;4975746;28;20481;-81
2022/03/24 12:04:16;;;;;;;10.37;9.47;;;24.60;41.90;;;;;;4978024;28;20442;-81
2022/03/24 12:06:54;;;;;;;11.97;10.57;;;24.70;41.80;;;;;;4977987;28;20442;-81
2022/03/24 12:09:32;;;;;;;15.10;9.90;;;24.60;41.70;;;;;;4978385;28;20472;-82
2022/03/24 12:12:13;;;;;;;11.57;10.43;;;24.60;41.80;;;;;;4977763;28;20440;-82
2022/03/24 12:14:45;;;;;;;11.70;10.40;;;24.60;41.70;;;;;;4977353;28;21002;-81
2022/03/24 12:17:17;;;;;;;10.40;9.50;;;24.70;41.80;;;;;;4977446;28;20448;-81
2022/03/24 12:19:47;;;;;;;11.83;10.73;;;24.60;41.70;;;;;;4977644;28;20785;-80
2022/03/24 12:22:47;;;;;;;10.57;9.57;;;24.60;41.60;;;;;;4977837;28;20496;-81
2022/03/24 12:25:26;;;;;;;11.30;10.30;;;24.70;41.70;;;;;;4977444;28;20438;-82
2022/03/24 12:28:21;;;;;;;11.90;10.83;;;24.60;41.70;;;;;;4977772;28;20512;-84
2022/03/24 12:30:51;;;;;;;11.00;9.83;;;24.80;42.00;;;;;;4977680;28;20434;-85
2022/03/24 12:33:30;;;;;;;11.37;10.17;;;24.50;41.80;;;;;;4977320;28;20469;-81
2022/03/24 12:35:57;;;;;;;11.80;10.70;;;24.60;41.80;;;;;;4977425;28;20446;-84
2022/03/24 12:38:30;;;;;;;12.00;10.87;;;24.60;41.80;;;;;;4977299;28;20637;-84
2022/03/24 12:41:25;;;;;;;14.53;11.27;;;24.60;41.70;;;;;;4977361;28;20437;-83
2022/03/24 12:44:10;;;;;;;11.67;10.50;;;24.70;41.70;;;;;;4977266;28;20525;-84
2022/03/24 12:46:44;;;;;;;10.83;9.93;;;24.60;41.70;;;;;;4976617;28;20875;-84
2022/03/24 12:49:32;;;;;;;11.77;10.70;;;24.60;41.80;;;;;;4977246;28;20477;-84
2022/03/24 12:52:02;;;;;;;11.73;10.73;;;24.60;41.90;;;;;;4977122;28;20786;-83
2022/03/24 12:54:30;;;;;;;13.40;11.67;;;24.60;42.60;;;;;;4977860;28;20836;-84
2022/03/24 12:57:36;;;;;;;15.40;12.10;;;24.60;42.00;;;;;;4977092;28;20523;-84
2022/03/24 13:00:07;;;;;;;12.57;11.47;;;24.70;41.90;;;;;;4971649;28;20457;-84
2022/03/24 13:02:34;;;;;;;11.77;10.57;;;24.60;41.80;;;;;;4977118;28;20444;-84
2022/03/24 13:05:01;;;;;;;11.67;9.87;;;24.60;41.90;;;;;;4976998;28;20445;-84
2022/03/24 13:07:29;;;;;;;11.73;10.63;;;24.60;42.00;;;;;;4976459;28;20441;-84